createdAt,value
2022-08-02T00:01:12.551Z,5.50
2022-08-02T00:03:34.593Z,4.40
2022-08-02T00:05:57.728Z,5.93
2022-08-02T00:08:19.676Z,4.40
2022-08-02T00:10:41.841Z,4.60
2022-08-02T00:13:03.824Z,4.53
2022-08-02T00:15:27.235Z,4.27
2022-08-02T00:17:49.597Z,3.27
2022-08-02T00:20:12.657Z,3.60
2022-08-02T00:22:34.999Z,4.03
2022-08-02T00:24:57.293Z,4.53
2022-08-02T00:27:19.271Z,4.07
2022-08-02T00:29:52.210Z,4.00
2022-08-02T00:32:16.793Z,2.93
2022-08-02T00:34:38.909Z,3.70
2022-08-02T00:37:01.274Z,3.23
2022-08-02T00:39:33.558Z,3.40
2022-08-02T00:41:56.438Z,2.70
2022-08-02T00:44:19.168Z,2.70
2022-08-02T00:46:41.317Z,2.77
2022-08-02T00:49:05.364Z,2.97
2022-08-02T00:51:29.204Z,3.07
2022-08-02T00:53:51.145Z,2.70
2022-08-02T00:56:13.261Z,2.23
2022-08-02T00:58:35.286Z,2.77
2022-08-02T01:00:58.301Z,2.70
2022-08-02T01:03:20.460Z,2.50
2022-08-02T01:06:09.972Z,2.97
2022-08-02T01:08:29.204Z,3.53
2022-08-02T01:10:53.701Z,2.77
2022-08-02T01:13:16.014Z,3.23
2022-08-02T01:15:40.923Z,2.63
2022-08-02T01:18:05.592Z,3.70
2022-08-02T01:20:39.018Z,3.10
2022-08-02T01:23:11.382Z,3.10
2022-08-02T01:25:46.906Z,3.17
2022-08-02T01:28:24.121Z,3.17
2022-08-02T01:30:49.392Z,2.80
2022-08-02T01:33:14.983Z,3.53
2022-08-02T01:35:51.042Z,2.87
2022-08-02T01:38:16.789Z,3.43
2022-08-02T01:40:41.513Z,2.73
2022-08-02T01:43:04.701Z,2.63
2022-08-02T01:45:27.555Z,2.87
2022-08-02T01:47:52.714Z,3.00
2022-08-02T01:50:15.167Z,2.37
2022-08-02T01:52:38.474Z,2.40
2022-08-02T01:55:02.973Z,3.63
2022-08-02T01:57:26.502Z,3.90
2022-08-02T01:59:48.852Z,3.73
2022-08-02T02:02:11.484Z,3.60
2022-08-02T02:04:36.847Z,3.47
2022-08-02T02:06:59.461Z,3.00
2022-08-02T02:09:22.167Z,3.37
2022-08-02T02:12:09.815Z,3.30
2022-08-02T02:14:29.034Z,3.40
2022-08-02T02:16:51.739Z,2.90
2022-08-02T02:19:21.239Z,2.53
2022-08-02T02:21:46.146Z,2.67
2022-08-02T02:24:09.089Z,2.90
2022-08-02T02:26:34.041Z,3.47
2022-08-02T02:28:56.590Z,3.63
2022-08-02T02:31:19.301Z,4.50
2022-08-02T02:33:43.099Z,3.70
2022-08-02T02:36:05.821Z,3.30
2022-08-02T02:38:30.726Z,3.47
2022-08-02T02:40:53.720Z,3.57
2022-08-02T02:43:16.775Z,3.90
2022-08-02T02:45:39.856Z,3.10
2022-08-02T02:48:02.573Z,3.60
2022-08-02T02:50:26.385Z,3.37
2022-08-02T02:52:49.406Z,3.17
2022-08-02T02:55:13.262Z,3.73
2022-08-02T02:57:35.728Z,3.23
2022-08-02T02:59:58.721Z,2.93
2022-08-02T03:02:21.639Z,3.20
2022-08-02T03:04:57.061Z,3.40
2022-08-02T03:07:20.134Z,3.23
2022-08-02T03:09:42.601Z,3.33
2022-08-02T03:12:06.501Z,3.83
2022-08-02T03:14:28.781Z,3.30
2022-08-02T03:16:52.182Z,3.30
2022-08-02T03:19:14.054Z,3.97
2022-08-02T03:21:35.972Z,3.17
2022-08-02T03:23:58.202Z,3.70
2022-08-02T03:26:20.376Z,3.47
2022-08-02T03:28:44.444Z,3.37
2022-08-02T03:31:06.492Z,3.60
2022-08-02T03:33:28.794Z,4.47
2022-08-02T03:35:52.165Z,3.37
2022-08-02T03:38:14.613Z,2.70
2022-08-02T03:40:37.288Z,3.23
2022-08-02T03:42:59.352Z,3.23
2022-08-02T03:45:22.999Z,3.30
2022-08-02T03:47:45.599Z,3.07
2022-08-02T03:50:07.960Z,3.80
2022-08-02T03:52:30.404Z,3.87
2022-08-02T03:54:52.424Z,4.27
2022-08-02T03:57:15.073Z,4.23
2022-08-02T03:59:41.999Z,4.00
2022-08-02T04:02:05.738Z,3.10
2022-08-02T04:04:27.938Z,3.60
2022-08-02T04:06:50.225Z,4.03
2022-08-02T04:09:12.352Z,3.60
2022-08-02T04:11:34.288Z,3.20
2022-08-02T04:13:56.936Z,3.67
2022-08-02T04:16:21.917Z,3.87
2022-08-02T04:18:48.193Z,3.90
2022-08-02T04:21:11.480Z,4.33
2022-08-02T04:23:34.456Z,3.50
2022-08-02T04:25:58.663Z,3.67
2022-08-02T04:28:27.607Z,4.63
2022-08-02T04:30:51.777Z,3.40
2022-08-02T04:33:14.187Z,3.70
2022-08-02T04:35:37.956Z,3.53
2022-08-02T04:38:08.195Z,3.50
2022-08-02T04:40:32.112Z,4.63
2022-08-02T04:42:54.497Z,3.20
2022-08-02T04:45:16.760Z,3.40
2022-08-02T04:48:02.313Z,3.47
2022-08-02T04:50:21.642Z,3.50
2022-08-02T04:52:46.007Z,3.70
2022-08-02T04:55:08.893Z,3.80
2022-08-02T04:57:52.824Z,3.77
2022-08-02T05:00:15.799Z,3.83
2022-08-02T05:02:39.272Z,3.13
2022-08-02T05:05:01.469Z,3.23
2022-08-02T05:07:23.572Z,4.00
2022-08-02T05:09:46.972Z,3.53
2022-08-02T05:12:09.972Z,2.70
2022-08-02T05:14:32.813Z,3.60
2022-08-02T05:16:54.842Z,3.27
2022-08-02T05:19:16.938Z,3.47
2022-08-02T05:21:39.218Z,3.40
2022-08-02T05:24:01.269Z,3.40
2022-08-02T05:26:24.835Z,3.23
2022-08-02T05:28:47.229Z,3.17
2022-08-02T05:31:13.113Z,4.03
2022-08-02T05:33:35.847Z,3.67
2022-08-02T05:35:59.115Z,3.40
2022-08-02T05:38:25.176Z,2.60
2022-08-02T05:40:55.061Z,3.60
2022-08-02T05:43:18.934Z,3.57
2022-08-02T05:45:43.192Z,3.63
2022-08-02T05:48:06.065Z,4.70
2022-08-02T05:50:28.166Z,3.90
2022-08-02T05:52:52.920Z,2.87
2022-08-02T05:55:17.954Z,3.07
2022-08-02T05:57:44.117Z,3.70
2022-08-02T06:00:10.325Z,3.20
2022-08-02T06:02:36.153Z,3.20
2022-08-02T06:05:01.284Z,3.13
2022-08-02T06:07:24.269Z,3.30
2022-08-02T06:09:47.027Z,2.70
2022-08-02T06:12:10.353Z,3.27
2022-08-02T06:14:34.018Z,2.63
2022-08-02T06:16:57.773Z,3.23
2022-08-02T06:19:20.701Z,2.90
2022-08-02T06:22:33.904Z,2.87
2022-08-02T06:24:27.478Z,3.27
2022-08-02T06:26:52.757Z,2.63
2022-08-02T06:29:16.023Z,3.43
2022-08-02T06:31:39.007Z,3.20
2022-08-02T06:34:02.653Z,3.10
2022-08-02T06:36:29.436Z,2.80
2022-08-02T06:38:56.684Z,2.97
2022-08-02T06:41:20.445Z,2.60
2022-08-02T06:43:46.563Z,2.67
2022-08-02T06:46:34.160Z,2.73
2022-08-02T06:48:51.305Z,3.20
2022-08-02T06:51:15.116Z,2.70
2022-08-02T06:53:37.307Z,2.90
2022-08-02T06:55:59.829Z,2.90
2022-08-02T06:58:22.119Z,2.90
2022-08-02T07:00:44.556Z,2.60
2022-08-02T07:03:07.163Z,2.63
2022-08-02T07:05:29.300Z,3.53
2022-08-02T07:07:52.932Z,2.70
2022-08-02T07:10:15.307Z,3.33
2022-08-02T07:12:37.304Z,2.73
2022-08-02T07:14:59.970Z,3.03
2022-08-02T07:17:22.120Z,2.70
2022-08-02T07:19:44.179Z,2.80
2022-08-02T07:22:06.444Z,2.60
2022-08-02T07:24:30.281Z,3.00
2022-08-02T07:27:10.391Z,3.27
2022-08-02T07:29:46.601Z,2.53
2022-08-02T07:32:09.999Z,2.97
2022-08-02T07:34:32.480Z,2.93
2022-08-02T07:36:54.476Z,3.90
2022-08-02T07:39:16.430Z,3.00
2022-08-02T07:41:41.064Z,3.13
2022-08-02T07:44:03.216Z,2.90
2022-08-02T07:46:25.726Z,3.10
2022-08-02T07:48:53.417Z,3.00
2022-08-02T07:51:17.432Z,2.13
2022-08-02T07:53:51.327Z,2.33
2022-08-02T07:56:24.468Z,2.10
2022-08-02T07:58:48.580Z,2.50
2022-08-02T08:01:11.569Z,2.40
2022-08-02T08:03:33.639Z,2.20
2022-08-02T08:05:55.898Z,1.90
2022-08-02T08:08:17.922Z,2.00
2022-08-02T08:10:41.978Z,1.90
2022-08-02T08:13:04.042Z,1.50
2022-08-02T08:15:27.780Z,1.30
2022-08-02T08:17:49.907Z,1.60
2022-08-02T08:20:15.796Z,1.40
2022-08-02T08:22:38.013Z,1.50
2022-08-02T08:25:00.198Z,1.57
2022-08-02T08:27:23.524Z,1.17
2022-08-02T08:29:45.642Z,1.60
2022-08-02T08:32:14.176Z,1.53
2022-08-02T08:34:38.740Z,1.90
2022-08-02T08:37:00.819Z,1.13
2022-08-02T08:39:22.978Z,1.20
2022-08-02T08:41:45.583Z,1.00
2022-08-02T08:44:08.278Z,1.50
2022-08-02T08:46:32.331Z,1.10
2022-08-02T08:49:02.068Z,1.30
2022-08-02T08:51:26.123Z,1.00
2022-08-02T08:53:49.758Z,1.30
2022-08-02T08:56:16.235Z,1.43
2022-08-02T08:58:40.162Z,1.60
2022-08-02T09:01:02.111Z,1.07
2022-08-02T09:03:24.666Z,1.30
2022-08-02T09:05:48.455Z,1.30
2022-08-02T09:08:16.358Z,1.13
2022-08-02T09:10:42.533Z,1.50
2022-08-02T09:13:37.651Z,1.37
2022-08-02T09:15:56.227Z,1.63
2022-08-02T09:18:18.585Z,1.63
2022-08-02T09:20:55.228Z,1.90
2022-08-02T09:23:21.726Z,2.10
2022-08-02T09:25:59.426Z,1.40
2022-08-02T09:28:22.258Z,1.50
2022-08-02T09:30:45.418Z,2.20
2022-08-02T09:33:09.251Z,1.70
2022-08-02T09:36:05.485Z,1.50
2022-08-02T09:38:21.480Z,1.90
2022-08-02T09:40:44.388Z,1.90
2022-08-02T09:43:07.107Z,2.73
2022-08-02T09:45:32.777Z,1.73
2022-08-02T09:47:54.867Z,1.90
2022-08-02T09:50:17.942Z,1.60
2022-08-02T09:52:43.605Z,1.83
2022-08-02T09:55:08.740Z,1.90
2022-08-02T09:57:33.601Z,2.50
2022-08-02T09:59:57.139Z,2.03
2022-08-02T10:02:22.656Z,2.83
2022-08-02T10:04:52.301Z,3.43
2022-08-02T10:07:16.247Z,2.70
2022-08-02T10:09:43.188Z,2.80
2022-08-02T10:12:12.040Z,3.17
2022-08-02T10:14:35.813Z,3.37
2022-08-02T10:16:59.637Z,3.00
2022-08-02T10:20:00.870Z,2.53
2022-08-02T10:22:07.228Z,2.70
2022-08-02T10:24:30.283Z,2.00
2022-08-02T10:26:52.681Z,1.77
2022-08-02T10:29:18.355Z,2.13
2022-08-02T10:31:42.718Z,1.77
2022-08-02T10:34:05.353Z,1.90
2022-08-02T10:36:28.189Z,1.97
2022-08-02T10:38:54.345Z,2.13
2022-08-02T10:41:16.333Z,1.20
2022-08-02T10:43:43.053Z,2.00
2022-08-02T10:46:19.997Z,1.80
2022-08-02T10:48:57.006Z,1.80
2022-08-02T10:51:24.608Z,1.73
2022-08-02T10:54:06.936Z,1.87
2022-08-02T10:56:44.146Z,1.93
2022-08-02T10:59:20.891Z,1.70
2022-08-02T11:01:45.621Z,1.90
2022-08-02T11:04:10.764Z,1.30
2022-08-02T11:06:34.831Z,1.90
2022-08-02T11:09:20.777Z,1.70
2022-08-02T11:12:01.341Z,1.57
2022-08-02T11:14:23.393Z,1.07
2022-08-02T11:17:02.743Z,1.10
2022-08-02T11:19:24.724Z,1.77
2022-08-02T11:22:02.090Z,1.03
2022-08-02T11:24:29.420Z,1.47
2022-08-02T11:26:51.865Z,1.50
2022-08-02T11:29:15.581Z,1.40
2022-08-02T11:31:41.652Z,1.93
2022-08-02T11:34:09.183Z,1.70
2022-08-02T11:36:32.285Z,1.73
2022-08-02T11:39:10.158Z,2.17
2022-08-02T11:41:46.253Z,1.67
2022-08-02T11:44:09.927Z,1.60
2022-08-02T11:46:32.286Z,1.43
2022-08-02T11:48:54.543Z,2.20
2022-08-02T11:51:18.191Z,2.30
2022-08-02T11:53:47.730Z,1.83
2022-08-02T11:56:11.058Z,2.30
2022-08-02T11:58:33.120Z,2.47
2022-08-02T12:00:55.948Z,2.23
2022-08-02T12:03:19.919Z,2.17
2022-08-02T12:06:04.509Z,1.93
2022-08-02T12:08:27.501Z,1.47
2022-08-02T12:10:50.117Z,2.33
2022-08-02T12:13:13.517Z,2.20
2022-08-02T12:15:37.286Z,1.90
2022-08-02T12:18:17.237Z,2.67
2022-08-02T12:20:39.505Z,1.67
2022-08-02T12:23:04.170Z,2.00
2022-08-02T12:25:34.415Z,1.90
2022-08-02T12:28:17.310Z,2.27
2022-08-02T12:30:52.587Z,2.03
2022-08-02T12:33:14.928Z,1.93
2022-08-02T12:35:37.137Z,1.97
2022-08-02T12:37:59.223Z,2.13
2022-08-02T12:40:26.188Z,2.60
2022-08-02T12:42:50.622Z,2.00
2022-08-02T12:45:12.801Z,1.93
2022-08-02T12:47:46.843Z,2.27
2022-08-02T12:50:16.559Z,1.63
2022-08-02T12:52:38.403Z,1.60
2022-08-02T12:55:00.700Z,1.70
2022-08-02T12:57:22.643Z,1.40
2022-08-02T12:59:45.592Z,1.80
2022-08-02T13:02:09.204Z,1.70
2022-08-02T13:04:33.106Z,1.87
2022-08-02T13:06:55.181Z,1.53
2022-08-02T13:09:18.125Z,1.77
2022-08-02T13:11:42.915Z,2.20
2022-08-02T13:14:06.014Z,1.70
2022-08-02T13:16:31.634Z,2.17
2022-08-02T13:18:53.721Z,2.00
2022-08-02T13:21:39.994Z,1.90
2022-08-02T13:23:59.735Z,1.90
2022-08-02T13:26:22.684Z,2.20
2022-08-02T13:28:44.833Z,2.13
2022-08-02T13:31:34.067Z,1.97
2022-08-02T13:33:49.787Z,2.10
2022-08-02T13:36:12.005Z,1.87
2022-08-02T13:38:35.685Z,1.90
2022-08-02T13:41:09.872Z,1.80
2022-08-02T13:43:53.566Z,2.10
2022-08-02T13:46:14.340Z,2.30
2022-08-02T13:48:36.317Z,1.80
2022-08-02T13:50:58.144Z,2.30
2022-08-02T13:53:21.097Z,1.97
2022-08-02T13:55:44.436Z,2.23
2022-08-02T13:58:06.919Z,1.67
2022-08-02T14:00:35.028Z,2.63
2022-08-02T14:02:58.261Z,1.90
2022-08-02T14:05:25.621Z,2.13
2022-08-02T14:08:02.120Z,1.93
2022-08-02T14:10:25.967Z,1.73
2022-08-02T14:12:56.769Z,2.17
2022-08-02T14:15:19.218Z,2.40
2022-08-02T14:17:41.466Z,2.13
2022-08-02T14:20:03.939Z,1.83
2022-08-02T14:22:26.519Z,1.67
2022-08-02T14:24:49.297Z,2.43
2022-08-02T14:27:11.558Z,2.13
2022-08-02T14:29:35.145Z,2.10
2022-08-02T14:31:57.371Z,2.33
2022-08-02T14:34:19.366Z,2.50
2022-08-02T14:36:41.341Z,1.93
2022-08-02T14:39:03.886Z,1.97
2022-08-02T14:41:26.305Z,2.10
2022-08-02T14:44:08.026Z,2.20
2022-08-02T14:46:31.447Z,2.00
2022-08-02T14:48:53.574Z,2.00
2022-08-02T14:51:16.912Z,2.10
2022-08-02T14:53:49.478Z,1.97
2022-08-02T14:56:21.385Z,2.60
2022-08-02T14:58:43.342Z,2.87
2022-08-02T15:01:05.292Z,1.97
2022-08-02T15:03:29.737Z,1.90
2022-08-02T15:05:52.274Z,2.00
2022-08-02T15:08:17.166Z,2.07
2022-08-02T15:10:40.245Z,1.87
2022-08-02T15:13:02.254Z,1.87
2022-08-02T15:15:26.117Z,2.00
2022-08-02T15:17:48.329Z,2.80
2022-08-02T15:20:25.543Z,2.73
2022-08-02T15:22:49.427Z,2.23
2022-08-02T15:25:14.922Z,2.30
2022-08-02T15:27:36.866Z,2.40
2022-08-02T15:30:01.911Z,1.90
2022-08-02T15:32:24.307Z,2.23
2022-08-02T15:34:46.415Z,1.93
2022-08-02T15:37:10.075Z,2.33
2022-08-02T15:39:32.346Z,2.57
2022-08-02T15:41:54.343Z,2.30
2022-08-02T15:44:16.332Z,1.93
2022-08-02T15:46:39.397Z,2.00
2022-08-02T15:49:01.823Z,2.20
2022-08-02T15:51:24.094Z,2.77
2022-08-02T15:53:49.717Z,2.63
2022-08-02T15:56:13.124Z,2.03
2022-08-02T15:58:44.311Z,2.43
2022-08-02T16:01:07.000Z,2.17
2022-08-02T16:03:29.189Z,2.20
2022-08-02T16:05:51.272Z,2.30
2022-08-02T16:08:13.208Z,1.80
2022-08-02T16:10:36.401Z,2.63
2022-08-02T16:12:40.101Z,2.50
2022-08-02T16:15:02.150Z,3.03
2022-08-02T16:17:51.413Z,3.00
2022-08-02T16:20:07.157Z,2.80
2022-08-02T16:22:29.357Z,2.80
2022-08-02T16:24:53.116Z,2.53
2022-08-02T16:27:16.525Z,2.40
2022-08-02T16:29:38.790Z,2.73
2022-08-02T16:32:00.706Z,3.27
2022-08-02T16:34:23.016Z,2.50
2022-08-02T16:36:45.288Z,2.63
2022-08-02T16:39:07.615Z,2.97
2022-08-02T16:41:45.581Z,2.67
2022-08-02T16:44:12.949Z,2.47
2022-08-02T16:46:35.325Z,2.90
2022-08-02T16:48:57.321Z,3.00
2022-08-02T16:51:19.717Z,3.20
2022-08-02T16:54:00.191Z,2.60
2022-08-02T16:56:23.130Z,2.70
2022-08-02T16:58:45.318Z,2.93
2022-08-02T17:01:11.286Z,2.67
2022-08-02T17:03:56.085Z,3.70
2022-08-02T17:06:16.238Z,3.30
2022-08-02T17:08:38.546Z,2.80
2022-08-02T17:11:17.393Z,3.00
2022-08-02T17:13:40.403Z,3.17
2022-08-02T17:16:20.503Z,3.33
2022-08-02T17:18:47.156Z,3.53
2022-08-02T17:21:11.857Z,3.03
2022-08-02T17:23:47.136Z,3.67
2022-08-02T17:26:17.358Z,3.50
2022-08-02T17:28:56.430Z,3.20
2022-08-02T17:31:19.505Z,3.23
2022-08-02T17:33:53.173Z,3.53
2022-08-02T17:35:56.777Z,2.90
2022-08-02T17:38:00.428Z,2.80
2022-08-02T17:40:04.483Z,3.27
2022-08-02T17:42:08.089Z,3.90
2022-08-02T17:44:12.408Z,3.80
2022-08-02T17:46:16.052Z,3.57
2022-08-02T17:48:19.909Z,2.97
2022-08-02T17:50:34.280Z,3.07
2022-08-02T17:52:49.976Z,3.23
2022-08-02T17:54:55.770Z,3.30
2022-08-02T17:56:59.501Z,3.37
2022-08-02T17:59:12.246Z,3.70
2022-08-02T18:01:25.402Z,3.30
2022-08-02T18:03:29.629Z,3.37
2022-08-02T18:05:41.950Z,4.00
2022-08-02T18:08:01.049Z,3.90
2022-08-02T18:10:04.768Z,3.00
2022-08-02T18:12:09.646Z,3.30
2022-08-02T18:14:14.701Z,3.30
2022-08-02T18:16:21.315Z,4.03
2022-08-02T18:18:29.464Z,3.40
2022-08-02T18:20:35.312Z,2.90
2022-08-02T18:22:39.781Z,3.50
2022-08-02T18:24:46.605Z,3.40
2022-08-02T18:26:53.511Z,3.87
2022-08-02T18:28:57.068Z,3.33
2022-08-02T18:31:00.660Z,3.43
2022-08-02T21:16:46.828Z,4.33
2022-08-02T21:19:14.131Z,4.37
2022-08-02T21:21:38.420Z,5.40
2022-08-02T21:24:03.239Z,4.00
2022-08-02T21:26:28.114Z,5.30
2022-08-02T21:28:55.499Z,4.70
2022-08-02T21:31:19.620Z,4.80
2022-08-02T21:33:57.391Z,4.60
2022-08-02T21:36:22.957Z,4.77
2022-08-02T21:38:57.993Z,5.03
2022-08-02T21:48:46.837Z,5.03
2022-08-02T21:50:54.132Z,4.60
2022-08-02T21:56:02.732Z,4.73
2022-08-02T21:58:25.572Z,4.40
2022-08-02T22:00:49.500Z,5.30
2022-08-02T22:03:22.993Z,5.33
2022-08-02T22:05:47.444Z,5.30
2022-08-02T22:08:11.628Z,5.50
2022-08-02T22:11:03.184Z,5.37
2022-08-02T22:13:26.470Z,5.40
2022-08-02T22:20:20.638Z,5.83
2022-08-02T22:23:50.483Z,5.87
2022-08-02T22:25:55.633Z,6.13
2022-08-02T22:28:11.809Z,5.87
2022-08-02T22:32:56.331Z,5.83
2022-08-02T22:35:02.389Z,5.73
2022-08-02T22:38:15.149Z,5.43
2022-08-02T22:40:09.378Z,5.70
2022-08-02T22:42:13.991Z,5.97
2022-08-02T22:44:18.996Z,5.20
2022-08-02T22:46:26.407Z,6.03
2022-08-02T22:50:48.882Z,4.93
2022-08-02T22:52:53.132Z,5.63
2022-08-02T22:54:57.685Z,5.20
2022-08-02T22:57:30.145Z,6.90
2022-08-02T22:59:12.606Z,4.60
2022-08-02T22:59:39.988Z,5.10
2022-08-02T23:01:44.234Z,5.67
2022-08-02T23:03:48.486Z,5.87
2022-08-02T23:05:52.458Z,4.93
2022-08-02T23:07:56.494Z,5.70
2022-08-02T23:10:00.714Z,5.23
2022-08-02T23:12:05.128Z,4.83
2022-08-02T23:14:09.865Z,6.00
2022-08-02T23:16:37.183Z,5.70
2022-08-02T23:18:58.690Z,5.87
2022-08-02T23:21:46.116Z,6.30
2022-08-02T23:23:40.633Z,5.37
2022-08-02T23:25:45.223Z,5.70
2022-08-02T23:27:51.264Z,5.60
2022-08-02T23:29:57.251Z,5.63
2022-08-02T23:32:02.899Z,5.63
2022-08-02T23:34:08.205Z,5.80
2022-08-02T23:36:13.067Z,5.20
2022-08-02T23:38:18.524Z,5.10
2022-08-02T23:40:39.671Z,5.83
2022-08-02T23:42:44.708Z,5.90
2022-08-02T23:44:48.711Z,5.30
2022-08-02T23:46:52.633Z,5.03
2022-08-02T23:48:57.776Z,4.63
2022-08-02T23:51:01.827Z,5.33
2022-08-02T23:53:06.076Z,5.83
2022-08-02T23:55:10.978Z,4.77
2022-08-02T23:57:20.390Z,5.40
2022-08-02T23:59:25.204Z,5.37
